sensor_id;sensor_type;location;lat;lon;timestamp;temperature;humidity
33528;DHT22;19861;42.868;74.608;2022-08-21T00:01:57;13.30;60.80
33528;DHT22;19861;42.868;74.608;2022-08-21T00:04:23;13.30;61.10
33528;DHT22;19861;42.868;74.608;2022-08-21T00:06:51;13.40;61.00
33528;DHT22;19861;42.868;74.608;2022-08-21T00:09:18;13.40;61.00
33528;DHT22;19861;42.868;74.608;2022-08-21T00:11:44;13.30;61.20
33528;DHT22;19861;42.868;74.608;2022-08-21T00:14:12;13.30;61.90
33528;DHT22;19861;42.868;74.608;2022-08-21T00:16:38;13.30;62.00
33528;DHT22;19861;42.868;74.608;2022-08-21T00:19:05;13.40;61.80
33528;DHT22;19861;42.868;74.608;2022-08-21T00:21:33;13.30;61.70
33528;DHT22;19861;42.868;74.608;2022-08-21T00:24:00;13.30;62.60
33528;DHT22;19861;42.868;74.608;2022-08-21T00:26:26;13.30;62.00
33528;DHT22;19861;42.868;74.608;2022-08-21T00:28:52;13.30;62.00
33528;DHT22;19861;42.868;74.608;2022-08-21T00:31:18;13.40;61.90
33528;DHT22;19861;42.868;74.608;2022-08-21T00:33:45;13.50;61.80
33528;DHT22;19861;42.868;74.608;2022-08-21T00:36:12;13.50;61.80
33528;DHT22;19861;42.868;74.608;2022-08-21T00:38:38;13.50;61.70
33528;DHT22;19861;42.868;74.608;2022-08-21T00:41:07;13.50;61.50
33528;DHT22;19861;42.868;74.608;2022-08-21T00:43:36;13.60;61.30
33528;DHT22;19861;42.868;74.608;2022-08-21T00:46:03;13.60;61.10
33528;DHT22;19861;42.868;74.608;2022-08-21T00:48:30;13.70;61.10
33528;DHT22;19861;42.868;74.608;2022-08-21T00:51:13;13.70;61.10
33528;DHT22;19861;42.868;74.608;2022-08-21T00:53:42;13.80;61.30
33528;DHT22;19861;42.868;74.608;2022-08-21T00:56:10;13.70;61.20
33528;DHT22;19861;42.868;74.608;2022-08-21T00:58:39;13.80;61.30
33528;DHT22;19861;42.868;74.608;2022-08-21T01:01:08;13.80;61.50
33528;DHT22;19861;42.868;74.608;2022-08-21T01:03:36;13.90;61.20
33528;DHT22;19861;42.868;74.608;2022-08-21T01:06:05;13.90;61.00
33528;DHT22;19861;42.868;74.608;2022-08-21T01:08:32;14.00;61.10
33528;DHT22;19861;42.868;74.608;2022-08-21T01:10:59;14.00;60.60
33528;DHT22;19861;42.868;74.608;2022-08-21T01:13:30;14.10;60.10
33528;DHT22;19861;42.868;74.608;2022-08-21T01:15:59;13.90;61.50
33528;DHT22;19861;42.868;74.608;2022-08-21T01:18:28;14.10;60.70
33528;DHT22;19861;42.868;74.608;2022-08-21T01:21:09;14.20;60.30
33528;DHT22;19861;42.868;74.608;2022-08-21T01:23:40;14.40;60.20
33528;DHT22;19861;42.868;74.608;2022-08-21T01:26:08;14.40;60.00
33528;DHT22;19861;42.868;74.608;2022-08-21T01:28:42;14.50;60.00
33528;DHT22;19861;42.868;74.608;2022-08-21T01:31:10;14.50;59.70
33528;DHT22;19861;42.868;74.608;2022-08-21T01:33:39;14.70;59.20
33528;DHT22;19861;42.868;74.608;2022-08-21T01:36:06;14.80;58.80
33528;DHT22;19861;42.868;74.608;2022-08-21T01:38:32;14.90;58.70
33528;DHT22;19861;42.868;74.608;2022-08-21T01:41:00;14.80;58.50
33528;DHT22;19861;42.868;74.608;2022-08-21T01:43:29;14.80;58.80
33528;DHT22;19861;42.868;74.608;2022-08-21T01:45:55;14.70;59.10
33528;DHT22;19861;42.868;74.608;2022-08-21T01:48:21;14.90;58.80
33528;DHT22;19861;42.868;74.608;2022-08-21T01:50:47;15.10;58.60
33528;DHT22;19861;42.868;74.608;2022-08-21T01:53:13;15.10;58.20
33528;DHT22;19861;42.868;74.608;2022-08-21T01:55:42;15.20;57.60
33528;DHT22;19861;42.868;74.608;2022-08-21T01:58:08;15.20;57.70
33528;DHT22;19861;42.868;74.608;2022-08-21T02:00:34;15.20;57.60
33528;DHT22;19861;42.868;74.608;2022-08-21T02:03:01;15.40;57.30
33528;DHT22;19861;42.868;74.608;2022-08-21T02:05:27;15.50;57.10
33528;DHT22;19861;42.868;74.608;2022-08-21T02:07:56;15.50;56.90
33528;DHT22;19861;42.868;74.608;2022-08-21T02:10:27;15.80;56.70
33528;DHT22;19861;42.868;74.608;2022-08-21T02:12:54;15.90;56.20
33528;DHT22;19861;42.868;74.608;2022-08-21T02:15:21;16.00;55.90
33528;DHT22;19861;42.868;74.608;2022-08-21T02:17:50;16.20;55.30
33528;DHT22;19861;42.868;74.608;2022-08-21T02:20:20;16.50;54.40
33528;DHT22;19861;42.868;74.608;2022-08-21T02:22:47;16.60;54.00
33528;DHT22;19861;42.868;74.608;2022-08-21T02:25:13;16.60;54.20
33528;DHT22;19861;42.868;74.608;2022-08-21T02:27:42;16.50;54.30
33528;DHT22;19861;42.868;74.608;2022-08-21T02:30:12;16.60;54.00
33528;DHT22;19861;42.868;74.608;2022-08-21T02:32:39;16.70;53.90
33528;DHT22;19861;42.868;74.608;2022-08-21T02:35:06;16.80;54.00
33528;DHT22;19861;42.868;74.608;2022-08-21T02:37:47;16.90;53.30
33528;DHT22;19861;42.868;74.608;2022-08-21T02:40:14;17.10;53.50
33528;DHT22;19861;42.868;74.608;2022-08-21T02:42:43;17.10;53.10
33528;DHT22;19861;42.868;74.608;2022-08-21T02:45:10;16.40;54.30
33528;DHT22;19861;42.868;74.608;2022-08-21T02:47:37;16.90;54.30
33528;DHT22;19861;42.868;74.608;2022-08-21T02:50:05;17.10;53.50
33528;DHT22;19861;42.868;74.608;2022-08-21T02:52:34;16.80;53.20
33528;DHT22;19861;42.868;74.608;2022-08-21T02:55:00;17.00;53.50
33528;DHT22;19861;42.868;74.608;2022-08-21T02:57:26;17.20;52.90
33528;DHT22;19861;42.868;74.608;2022-08-21T02:59:52;17.20;52.80
33528;DHT22;19861;42.868;74.608;2022-08-21T03:02:18;17.60;52.30
33528;DHT22;19861;42.868;74.608;2022-08-21T03:04:48;17.00;52.80
33528;DHT22;19861;42.868;74.608;2022-08-21T03:07:14;16.30;55.00
33528;DHT22;19861;42.868;74.608;2022-08-21T03:09:41;16.40;54.60
33528;DHT22;19861;42.868;74.608;2022-08-21T03:12:07;16.80;53.80
33528;DHT22;19861;42.868;74.608;2022-08-21T03:14:33;17.30;52.80
33528;DHT22;19861;42.868;74.608;2022-08-21T03:16:59;17.60;52.60
33528;DHT22;19861;42.868;74.608;2022-08-21T03:19:25;17.80;51.70
33528;DHT22;19861;42.868;74.608;2022-08-21T03:21:51;18.10;50.70
33528;DHT22;19861;42.868;74.608;2022-08-21T03:24:17;18.30;49.90
33528;DHT22;19861;42.868;74.608;2022-08-21T03:26:43;18.30;49.30
33528;DHT22;19861;42.868;74.608;2022-08-21T03:29:10;18.30;48.80
33528;DHT22;19861;42.868;74.608;2022-08-21T03:31:39;18.30;48.70
33528;DHT22;19861;42.868;74.608;2022-08-21T03:34:05;18.40;49.00
33528;DHT22;19861;42.868;74.608;2022-08-21T03:36:31;18.60;49.30
33528;DHT22;19861;42.868;74.608;2022-08-21T03:38:57;18.30;49.70
33528;DHT22;19861;42.868;74.608;2022-08-21T03:41:26;18.20;50.40
33528;DHT22;19861;42.868;74.608;2022-08-21T03:43:52;17.90;50.50
33528;DHT22;19861;42.868;74.608;2022-08-21T03:46:19;17.80;50.90
33528;DHT22;19861;42.868;74.608;2022-08-21T03:48:45;18.10;49.20
33528;DHT22;19861;42.868;74.608;2022-08-21T03:51:11;18.00;48.10
33528;DHT22;19861;42.868;74.608;2022-08-21T03:53:37;17.20;49.20
33528;DHT22;19861;42.868;74.608;2022-08-21T03:56:05;17.20;50.30
33528;DHT22;19861;42.868;74.608;2022-08-21T03:58:31;17.70;48.90
33528;DHT22;19861;42.868;74.608;2022-08-21T04:00:59;17.30;48.00
33528;DHT22;19861;42.868;74.608;2022-08-21T04:03:26;17.80;48.80
33528;DHT22;19861;42.868;74.608;2022-08-21T04:05:52;17.90;49.70
33528;DHT22;19861;42.868;74.608;2022-08-21T04:08:19;17.80;49.40
33528;DHT22;19861;42.868;74.608;2022-08-21T04:10:50;18.00;49.00
33528;DHT22;19861;42.868;74.608;2022-08-21T04:13:17;17.80;48.90
33528;DHT22;19861;42.868;74.608;2022-08-21T04:15:44;18.20;48.70
33528;DHT22;19861;42.868;74.608;2022-08-21T04:18:10;18.60;48.80
33528;DHT22;19861;42.868;74.608;2022-08-21T04:20:36;19.00;48.60
33528;DHT22;19861;42.868;74.608;2022-08-21T04:23:03;19.30;48.00
33528;DHT22;19861;42.868;74.608;2022-08-21T04:25:29;19.30;46.60
33528;DHT22;19861;42.868;74.608;2022-08-21T04:27:57;19.60;46.10
33528;DHT22;19861;42.868;74.608;2022-08-21T04:30:24;19.80;44.50
33528;DHT22;19861;42.868;74.608;2022-08-21T04:32:51;19.50;45.50
33528;DHT22;19861;42.868;74.608;2022-08-21T04:35:20;19.70;45.40
33528;DHT22;19861;42.868;74.608;2022-08-21T04:37:47;19.30;45.30
33528;DHT22;19861;42.868;74.608;2022-08-21T04:40:15;19.60;45.40
33528;DHT22;19861;42.868;74.608;2022-08-21T04:42:46;20.00;45.20
33528;DHT22;19861;42.868;74.608;2022-08-21T04:45:27;20.00;44.90
33528;DHT22;19861;42.868;74.608;2022-08-21T04:47:56;20.20;44.80
33528;DHT22;19861;42.868;74.608;2022-08-21T04:50:28;20.30;45.10
33528;DHT22;19861;42.868;74.608;2022-08-21T04:52:55;19.50;45.80
33528;DHT22;19861;42.868;74.608;2022-08-21T04:55:21;18.60;47.50
33528;DHT22;19861;42.868;74.608;2022-08-21T04:57:49;18.40;48.70
33528;DHT22;19861;42.868;74.608;2022-08-21T05:00:20;18.40;49.70
33528;DHT22;19861;42.868;74.608;2022-08-21T05:02:46;18.70;48.30
33528;DHT22;19861;42.868;74.608;2022-08-21T05:05:13;18.90;47.80
33528;DHT22;19861;42.868;74.608;2022-08-21T05:07:42;18.90;47.50
33528;DHT22;19861;42.868;74.608;2022-08-21T05:10:10;19.40;47.30
33528;DHT22;19861;42.868;74.608;2022-08-21T05:12:37;19.00;48.40
33528;DHT22;19861;42.868;74.608;2022-08-21T05:15:04;18.50;48.60
33528;DHT22;19861;42.868;74.608;2022-08-21T05:17:30;18.70;48.80
33528;DHT22;19861;42.868;74.608;2022-08-21T05:19:56;18.70;48.60
33528;DHT22;19861;42.868;74.608;2022-08-21T05:22:23;18.70;47.60
33528;DHT22;19861;42.868;74.608;2022-08-21T05:24:50;18.60;47.50
33528;DHT22;19861;42.868;74.608;2022-08-21T05:27:17;18.60;48.00
33528;DHT22;19861;42.868;74.608;2022-08-21T05:29:43;18.60;49.30
33528;DHT22;19861;42.868;74.608;2022-08-21T05:32:11;18.80;48.30
33528;DHT22;19861;42.868;74.608;2022-08-21T05:34:37;18.90;48.30
33528;DHT22;19861;42.868;74.608;2022-08-21T05:37:05;19.10;47.50
33528;DHT22;19861;42.868;74.608;2022-08-21T05:39:32;19.20;45.80
33528;DHT22;19861;42.868;74.608;2022-08-21T05:41:58;18.60;45.20
33528;DHT22;19861;42.868;74.608;2022-08-21T05:44:24;18.60;47.70
33528;DHT22;19861;42.868;74.608;2022-08-21T05:46:50;18.90;47.40
33528;DHT22;19861;42.868;74.608;2022-08-21T05:49:16;19.20;47.20
33528;DHT22;19861;42.868;74.608;2022-08-21T05:51:42;19.40;46.50
33528;DHT22;19861;42.868;74.608;2022-08-21T05:54:08;19.10;46.40
33528;DHT22;19861;42.868;74.608;2022-08-21T05:56:34;18.60;46.90
33528;DHT22;19861;42.868;74.608;2022-08-21T05:59:01;18.90;46.70
33528;DHT22;19861;42.868;74.608;2022-08-21T06:01:27;19.20;46.20
33528;DHT22;19861;42.868;74.608;2022-08-21T06:03:53;19.10;45.80
33528;DHT22;19861;42.868;74.608;2022-08-21T06:06:19;19.20;45.90
33528;DHT22;19861;42.868;74.608;2022-08-21T06:08:45;19.20;45.10
33528;DHT22;19861;42.868;74.608;2022-08-21T06:11:12;19.50;45.70
33528;DHT22;19861;42.868;74.608;2022-08-21T06:13:38;19.30;44.70
33528;DHT22;19861;42.868;74.608;2022-08-21T06:16:09;19.20;45.10
33528;DHT22;19861;42.868;74.608;2022-08-21T06:18:36;19.30;43.60
33528;DHT22;19861;42.868;74.608;2022-08-21T06:21:03;19.50;43.10
33528;DHT22;19861;42.868;74.608;2022-08-21T06:23:30;19.60;44.60
33528;DHT22;19861;42.868;74.608;2022-08-21T06:25:56;19.40;45.50
33528;DHT22;19861;42.868;74.608;2022-08-21T06:28:22;19.60;44.70
33528;DHT22;19861;42.868;74.608;2022-08-21T06:30:49;19.60;44.20
33528;DHT22;19861;42.868;74.608;2022-08-21T06:33:15;19.60;45.20
33528;DHT22;19861;42.868;74.608;2022-08-21T06:35:41;19.70;44.90
33528;DHT22;19861;42.868;74.608;2022-08-21T06:38:07;19.50;45.70
33528;DHT22;19861;42.868;74.608;2022-08-21T06:40:36;19.00;45.90
33528;DHT22;19861;42.868;74.608;2022-08-21T06:43:14;19.10;47.10
33528;DHT22;19861;42.868;74.608;2022-08-21T06:45:42;19.20;46.60
33528;DHT22;19861;42.868;74.608;2022-08-21T06:48:08;19.10;46.60
33528;DHT22;19861;42.868;74.608;2022-08-21T06:50:35;19.00;46.10
33528;DHT22;19861;42.868;74.608;2022-08-21T06:53:09;19.40;46.00
33528;DHT22;19861;42.868;74.608;2022-08-21T06:55:36;19.70;45.70
33528;DHT22;19861;42.868;74.608;2022-08-21T06:58:03;20.00;44.40
33528;DHT22;19861;42.868;74.608;2022-08-21T07:00:30;20.20;42.90
33528;DHT22;19861;42.868;74.608;2022-08-21T07:02:56;20.40;41.20
33528;DHT22;19861;42.868;74.608;2022-08-21T07:05:25;20.40;42.00
33528;DHT22;19861;42.868;74.608;2022-08-21T07:07:51;20.20;42.30
33528;DHT22;19861;42.868;74.608;2022-08-21T07:10:17;20.40;42.30
33528;DHT22;19861;42.868;74.608;2022-08-21T07:12:44;20.20;42.40
33528;DHT22;19861;42.868;74.608;2022-08-21T07:15:10;20.50;42.00
33528;DHT22;19861;42.868;74.608;2022-08-21T07:17:36;20.50;41.30
33528;DHT22;19861;42.868;74.608;2022-08-21T07:20:04;20.40;40.70
33528;DHT22;19861;42.868;74.608;2022-08-21T07:22:31;19.70;41.10
33528;DHT22;19861;42.868;74.608;2022-08-21T07:24:57;20.20;41.10
33528;DHT22;19861;42.868;74.608;2022-08-21T07:27:24;20.50;41.90
33528;DHT22;19861;42.868;74.608;2022-08-21T07:29:50;21.20;40.80
33528;DHT22;19861;42.868;74.608;2022-08-21T07:32:16;21.20;39.40
33528;DHT22;19861;42.868;74.608;2022-08-21T07:34:43;21.30;40.20
33528;DHT22;19861;42.868;74.608;2022-08-21T07:37:09;21.80;38.90
33528;DHT22;19861;42.868;74.608;2022-08-21T07:39:35;21.10;39.90
33528;DHT22;19861;42.868;74.608;2022-08-21T07:42:02;21.50;40.20
33528;DHT22;19861;42.868;74.608;2022-08-21T07:44:28;21.10;40.20
33528;DHT22;19861;42.868;74.608;2022-08-21T07:46:55;21.50;39.80
33528;DHT22;19861;42.868;74.608;2022-08-21T07:49:21;22.00;39.20
33528;DHT22;19861;42.868;74.608;2022-08-21T07:51:47;21.70;39.00
33528;DHT22;19861;42.868;74.608;2022-08-21T07:54:13;21.70;38.20
33528;DHT22;19861;42.868;74.608;2022-08-21T07:56:39;21.40;39.80
33528;DHT22;19861;42.868;74.608;2022-08-21T07:59:05;21.40;38.70
33528;DHT22;19861;42.868;74.608;2022-08-21T08:01:31;21.40;39.00
33528;DHT22;19861;42.868;74.608;2022-08-21T08:03:57;21.40;37.60
33528;DHT22;19861;42.868;74.608;2022-08-21T08:06:23;20.90;37.70
33528;DHT22;19861;42.868;74.608;2022-08-21T08:08:51;21.40;37.80
33528;DHT22;19861;42.868;74.608;2022-08-21T08:11:17;21.10;38.20
33528;DHT22;19861;42.868;74.608;2022-08-21T08:13:49;21.20;37.40
33528;DHT22;19861;42.868;74.608;2022-08-21T08:16:16;21.40;36.60
33528;DHT22;19861;42.868;74.608;2022-08-21T08:18:42;21.70;35.90
33528;DHT22;19861;42.868;74.608;2022-08-21T08:21:10;22.10;34.80
33528;DHT22;19861;42.868;74.608;2022-08-21T08:23:37;21.60;36.10
33528;DHT22;19861;42.868;74.608;2022-08-21T08:26:04;21.40;37.90
33528;DHT22;19861;42.868;74.608;2022-08-21T08:28:32;21.80;37.70
33528;DHT22;19861;42.868;74.608;2022-08-21T08:30:59;21.20;38.20
33528;DHT22;19861;42.868;74.608;2022-08-21T08:33:26;21.80;38.00
33528;DHT22;19861;42.868;74.608;2022-08-21T08:35:53;21.80;36.70
33528;DHT22;19861;42.868;74.608;2022-08-21T08:38:21;21.30;36.70
33528;DHT22;19861;42.868;74.608;2022-08-21T08:43:33;22.30;36.70
33528;DHT22;19861;42.868;74.608;2022-08-21T08:46:04;22.30;34.50
33528;DHT22;19861;42.868;74.608;2022-08-21T08:51:17;23.00;33.60
33528;DHT22;19861;42.868;74.608;2022-08-21T08:54:07;23.00;34.00
33528;DHT22;19861;42.868;74.608;2022-08-21T08:56:35;23.20;33.50
33528;DHT22;19861;42.868;74.608;2022-08-21T08:59:13;22.70;34.00
33528;DHT22;19861;42.868;74.608;2022-08-21T09:01:40;23.30;34.10
33528;DHT22;19861;42.868;74.608;2022-08-21T09:04:06;23.60;33.10
33528;DHT22;19861;42.868;74.608;2022-08-21T09:06:54;23.40;33.70
33528;DHT22;19861;42.868;74.608;2022-08-21T09:09:51;23.60;33.80
33528;DHT22;19861;42.868;74.608;2022-08-21T09:23:54;22.10;33.80
33528;DHT22;19861;42.868;74.608;2022-08-21T09:26:26;22.50;32.90
33528;DHT22;19861;42.868;74.608;2022-08-21T09:28:57;22.60;33.10
33528;DHT22;19861;42.868;74.608;2022-08-21T09:31:35;22.20;33.70
33528;DHT22;19861;42.868;74.608;2022-08-21T09:34:08;22.80;33.00
33528;DHT22;19861;42.868;74.608;2022-08-21T09:39:04;21.90;33.90
33528;DHT22;19861;42.868;74.608;2022-08-21T09:41:33;21.70;33.60
33528;DHT22;19861;42.868;74.608;2022-08-21T09:44:05;21.90;34.50
33528;DHT22;19861;42.868;74.608;2022-08-21T09:46:32;22.10;34.80
33528;DHT22;19861;42.868;74.608;2022-08-21T09:49:01;22.00;35.00
33528;DHT22;19861;42.868;74.608;2022-08-21T09:51:36;22.40;34.40
33528;DHT22;19861;42.868;74.608;2022-08-21T09:57:00;22.40;34.50
33528;DHT22;19861;42.868;74.608;2022-08-21T09:59:45;22.50;33.40
33528;DHT22;19861;42.868;74.608;2022-08-21T10:02:32;22.90;33.20
33528;DHT22;19861;42.868;74.608;2022-08-21T10:05:17;23.00;34.10
33528;DHT22;19861;42.868;74.608;2022-08-21T10:07:43;22.80;33.70
33528;DHT22;19861;42.868;74.608;2022-08-21T10:10:20;22.80;33.70
33528;DHT22;19861;42.868;74.608;2022-08-21T10:15:37;23.40;33.00
33528;DHT22;19861;42.868;74.608;2022-08-21T10:20:40;22.20;34.60
33528;DHT22;19861;42.868;74.608;2022-08-21T10:23:11;21.80;35.00
33528;DHT22;19861;42.868;74.608;2022-08-21T10:26:36;21.50;35.00
33528;DHT22;19861;42.868;74.608;2022-08-21T10:28:37;22.00;34.30
33528;DHT22;19861;42.868;74.608;2022-08-21T10:36:34;21.80;35.50
33528;DHT22;19861;42.868;74.608;2022-08-21T10:39:35;21.80;36.00
33528;DHT22;19861;42.868;74.608;2022-08-21T10:45:02;22.00;35.90
33528;DHT22;19861;42.868;74.608;2022-08-21T10:47:57;21.90;36.70
33528;DHT22;19861;42.868;74.608;2022-08-21T10:53:35;21.60;36.20
33528;DHT22;19861;42.868;74.608;2022-08-21T10:56:17;21.20;35.80
33528;DHT22;19861;42.868;74.608;2022-08-21T11:06:58;21.50;37.30
33528;DHT22;19861;42.868;74.608;2022-08-21T11:09:26;21.80;37.20
33528;DHT22;19861;42.868;74.608;2022-08-21T11:12:05;22.00;36.70
33528;DHT22;19861;42.868;74.608;2022-08-21T11:15:03;22.20;35.80
33528;DHT22;19861;42.868;74.608;2022-08-21T11:17:47;21.70;36.40
33528;DHT22;19861;42.868;74.608;2022-08-21T11:20:27;22.00;36.60
33528;DHT22;19861;42.868;74.608;2022-08-21T11:23:07;22.10;35.40
33528;DHT22;19861;42.868;74.608;2022-08-21T11:25:44;21.50;36.90
33528;DHT22;19861;42.868;74.608;2022-08-21T11:28:23;21.50;37.30
33528;DHT22;19861;42.868;74.608;2022-08-21T11:39:06;21.00;37.00
33528;DHT22;19861;42.868;74.608;2022-08-21T11:41:40;21.00;36.90
33528;DHT22;19861;42.868;74.608;2022-08-21T11:44:42;21.30;36.20
33528;DHT22;19861;42.868;74.608;2022-08-21T11:47:39;21.50;36.00
33528;DHT22;19861;42.868;74.608;2022-08-21T11:50:20;21.30;36.30
33528;DHT22;19861;42.868;74.608;2022-08-21T11:53:09;20.90;36.70
33528;DHT22;19861;42.868;74.608;2022-08-21T11:58:20;21.00;36.50
33528;DHT22;19861;42.868;74.608;2022-08-21T12:01:13;21.10;36.70
33528;DHT22;19861;42.868;74.608;2022-08-21T12:03:44;21.40;36.30
33528;DHT22;19861;42.868;74.608;2022-08-21T12:06:38;21.10;35.50
33528;DHT22;19861;42.868;74.608;2022-08-21T12:09:08;21.00;36.00
33528;DHT22;19861;42.868;74.608;2022-08-21T12:11:49;21.30;35.70
33528;DHT22;19861;42.868;74.608;2022-08-21T12:14:17;21.20;36.30
33528;DHT22;19861;42.868;74.608;2022-08-21T12:16:46;21.40;36.10
33528;DHT22;19861;42.868;74.608;2022-08-21T12:22:10;21.60;35.30
33528;DHT22;19861;42.868;74.608;2022-08-21T12:24:45;21.20;35.50
33528;DHT22;19861;42.868;74.608;2022-08-21T12:27:40;21.10;36.10
33528;DHT22;19861;42.868;74.608;2022-08-21T12:30:34;21.20;36.20
33528;DHT22;19861;42.868;74.608;2022-08-21T12:33:17;21.50;35.10
33528;DHT22;19861;42.868;74.608;2022-08-21T12:35:45;21.80;35.10
33528;DHT22;19861;42.868;74.608;2022-08-21T12:38:26;22.00;34.40
33528;DHT22;19861;42.868;74.608;2022-08-21T12:41:12;22.00;34.10
33528;DHT22;19861;42.868;74.608;2022-08-21T12:43:46;22.00;34.60
33528;DHT22;19861;42.868;74.608;2022-08-21T12:49:15;21.70;35.00
33528;DHT22;19861;42.868;74.608;2022-08-21T12:52:00;21.80;34.70
33528;DHT22;19861;42.868;74.608;2022-08-21T12:54:31;21.90;34.50
33528;DHT22;19861;42.868;74.608;2022-08-21T12:57:02;22.00;33.90
33528;DHT22;19861;42.868;74.608;2022-08-21T12:59:30;22.00;34.30
33528;DHT22;19861;42.868;74.608;2022-08-21T13:01:59;21.90;34.60
33528;DHT22;19861;42.868;74.608;2022-08-21T13:04:36;21.80;35.00
33528;DHT22;19861;42.868;74.608;2022-08-21T13:07:07;21.30;35.70
33528;DHT22;19861;42.868;74.608;2022-08-21T13:09:47;21.30;35.80
33528;DHT22;19861;42.868;74.608;2022-08-21T13:12:16;21.30;35.40
33528;DHT22;19861;42.868;74.608;2022-08-21T13:14:45;21.20;35.70
33528;DHT22;19861;42.868;74.608;2022-08-21T13:17:18;21.10;35.80
33528;DHT22;19861;42.868;74.608;2022-08-21T13:20:03;21.00;36.40
33528;DHT22;19861;42.868;74.608;2022-08-21T13:22:30;21.00;36.00
33528;DHT22;19861;42.868;74.608;2022-08-21T13:24:57;20.90;36.30
33528;DHT22;19861;42.868;74.608;2022-08-21T13:27:27;20.90;36.40
33528;DHT22;19861;42.868;74.608;2022-08-21T13:30:12;20.80;36.40
33528;DHT22;19861;42.868;74.608;2022-08-21T13:32:43;20.70;36.80
33528;DHT22;19861;42.868;74.608;2022-08-21T13:35:15;20.60;37.20
33528;DHT22;19861;42.868;74.608;2022-08-21T13:37:43;20.50;37.30
33528;DHT22;19861;42.868;74.608;2022-08-21T13:40:17;20.50;37.30
33528;DHT22;19861;42.868;74.608;2022-08-21T13:42:46;20.50;37.50
33528;DHT22;19861;42.868;74.608;2022-08-21T13:45:24;20.20;37.70
33528;DHT22;19861;42.868;74.608;2022-08-21T13:47:51;20.20;37.70
33528;DHT22;19861;42.868;74.608;2022-08-21T13:50:20;20.00;38.00
33528;DHT22;19861;42.868;74.608;2022-08-21T13:53:01;19.80;39.00
33528;DHT22;19861;42.868;74.608;2022-08-21T13:55:37;19.70;38.80
33528;DHT22;19861;42.868;74.608;2022-08-21T13:58:05;19.80;38.40
33528;DHT22;19861;42.868;74.608;2022-08-21T14:00:34;19.80;38.30
33528;DHT22;19861;42.868;74.608;2022-08-21T14:03:08;19.80;38.30
33528;DHT22;19861;42.868;74.608;2022-08-21T14:05:38;19.70;38.50
33528;DHT22;19861;42.868;74.608;2022-08-21T14:08:33;19.70;38.90
33528;DHT22;19861;42.868;74.608;2022-08-21T14:11:02;19.60;39.00
33528;DHT22;19861;42.868;74.608;2022-08-21T14:13:38;19.60;39.40
33528;DHT22;19861;42.868;74.608;2022-08-21T14:16:22;19.30;40.50
33528;DHT22;19861;42.868;74.608;2022-08-21T14:21:27;19.00;40.90
33528;DHT22;19861;42.868;74.608;2022-08-21T14:24:09;18.90;41.10
33528;DHT22;19861;42.868;74.608;2022-08-21T14:27:01;18.90;41.30
33528;DHT22;19861;42.868;74.608;2022-08-21T14:29:26;18.60;41.80
33528;DHT22;19861;42.868;74.608;2022-08-21T14:31:57;18.50;42.30
33528;DHT22;19861;42.868;74.608;2022-08-21T14:34:28;18.40;42.40
33528;DHT22;19861;42.868;74.608;2022-08-21T14:36:55;18.30;42.60
33528;DHT22;19861;42.868;74.608;2022-08-21T14:39:21;18.20;43.50
33528;DHT22;19861;42.868;74.608;2022-08-21T14:41:49;18.10;44.00
33528;DHT22;19861;42.868;74.608;2022-08-21T14:44:16;18.10;44.70
33528;DHT22;19861;42.868;74.608;2022-08-21T14:46:43;18.00;44.70
33528;DHT22;19861;42.868;74.608;2022-08-21T14:49:10;17.90;44.80
33528;DHT22;19861;42.868;74.608;2022-08-21T14:51:37;17.80;45.80
33528;DHT22;19861;42.868;74.608;2022-08-21T14:54:05;17.70;45.60
33528;DHT22;19861;42.868;74.608;2022-08-21T14:56:33;17.70;46.30
33528;DHT22;19861;42.868;74.608;2022-08-21T14:59:06;17.70;46.40
33528;DHT22;19861;42.868;74.608;2022-08-21T15:01:44;17.60;46.40
33528;DHT22;19861;42.868;74.608;2022-08-21T15:04:11;17.40;46.90
33528;DHT22;19861;42.868;74.608;2022-08-21T15:06:37;17.40;47.00
33528;DHT22;19861;42.868;74.608;2022-08-21T15:09:03;17.30;47.00
33528;DHT22;19861;42.868;74.608;2022-08-21T15:11:32;17.20;47.70
33528;DHT22;19861;42.868;74.608;2022-08-21T15:14:01;17.20;48.10
33528;DHT22;19861;42.868;74.608;2022-08-21T15:16:29;17.20;48.50
33528;DHT22;19861;42.868;74.608;2022-08-21T15:18:57;17.10;48.20
33528;DHT22;19861;42.868;74.608;2022-08-21T15:21:23;17.00;48.40
33528;DHT22;19861;42.868;74.608;2022-08-21T15:23:49;17.00;48.20
33528;DHT22;19861;42.868;74.608;2022-08-21T15:26:16;17.00;48.20
33528;DHT22;19861;42.868;74.608;2022-08-21T15:28:42;17.10;48.30
33528;DHT22;19861;42.868;74.608;2022-08-21T15:31:08;17.00;48.60
33528;DHT22;19861;42.868;74.608;2022-08-21T15:33:34;16.90;48.40
33528;DHT22;19861;42.868;74.608;2022-08-21T15:36:00;16.90;48.80
33528;DHT22;19861;42.868;74.608;2022-08-21T15:38:26;16.80;49.00
33528;DHT22;19861;42.868;74.608;2022-08-21T15:40:53;16.70;48.60
33528;DHT22;19861;42.868;74.608;2022-08-21T15:43:25;16.70;48.20
33528;DHT22;19861;42.868;74.608;2022-08-21T15:45:52;16.70;48.60
33528;DHT22;19861;42.868;74.608;2022-08-21T15:48:18;16.60;48.80
33528;DHT22;19861;42.868;74.608;2022-08-21T15:50:45;16.60;49.20
33528;DHT22;19861;42.868;74.608;2022-08-21T15:53:11;16.60;49.50
33528;DHT22;19861;42.868;74.608;2022-08-21T15:55:38;16.60;50.30
33528;DHT22;19861;42.868;74.608;2022-08-21T15:58:05;16.50;49.60
33528;DHT22;19861;42.868;74.608;2022-08-21T16:00:34;16.50;49.70
33528;DHT22;19861;42.868;74.608;2022-08-21T16:03:04;16.40;49.90
33528;DHT22;19861;42.868;74.608;2022-08-21T16:05:31;16.40;50.10
33528;DHT22;19861;42.868;74.608;2022-08-21T16:07:57;16.40;49.70
33528;DHT22;19861;42.868;74.608;2022-08-21T16:10:24;16.30;50.40
33528;DHT22;19861;42.868;74.608;2022-08-21T16:12:55;16.30;50.30
33528;DHT22;19861;42.868;74.608;2022-08-21T16:15:24;16.30;50.30
33528;DHT22;19861;42.868;74.608;2022-08-21T16:17:51;16.30;50.60
33528;DHT22;19861;42.868;74.608;2022-08-21T16:20:25;16.30;50.80
33528;DHT22;19861;42.868;74.608;2022-08-21T16:22:54;16.20;50.90
33528;DHT22;19861;42.868;74.608;2022-08-21T16:25:21;16.20;51.40
33528;DHT22;19861;42.868;74.608;2022-08-21T16:27:49;16.20;51.60
33528;DHT22;19861;42.868;74.608;2022-08-21T16:30:18;16.10;51.60
33528;DHT22;19861;42.868;74.608;2022-08-21T16:32:44;16.10;51.70
33528;DHT22;19861;42.868;74.608;2022-08-21T16:35:17;16.10;52.00
33528;DHT22;19861;42.868;74.608;2022-08-21T16:37:43;16.10;52.20
33528;DHT22;19861;42.868;74.608;2022-08-21T16:40:10;16.00;52.20